Time;durP1;ratioP1;P1;durP2;ratioP2;P2;SDS_P1;SDS_P2;PMS_P1;PMS_P2;Temp;Humidity;BMP_temperature;BMP_pressure;BME280_temperature;BME280_humidity;BME280_pressure;Samples;Min_cycle;Max_cycle;Signal;HPM_P1;HPM_P2
2021/06/20 00:01:13;;;;;;;17.50;16.20;;;24.20;99.90;;;;;;6314273;28;20230;-63
2021/06/20 00:04:17;;;;;;;16.83;15.53;;;24.10;99.90;;;;;;6315785;28;20556;-62
2021/06/20 00:07:20;;;;;;;19.10;17.70;;;24.10;99.90;;;;;;6312997;28;20222;-62
2021/06/20 00:10:26;;;;;;;19.20;17.53;;;24.10;99.90;;;;;;6313553;28;20359;-62
2021/06/20 00:13:29;;;;;;;18.17;16.77;;;24.00;99.90;;;;;;6314647;28;20229;-62
2021/06/20 00:16:34;;;;;;;19.57;18.10;;;24.00;99.90;;;;;;6314251;28;20222;-62
2021/06/20 00:19:37;;;;;;;19.90;18.20;;;24.00;99.90;;;;;;6312783;28;20650;-62
2021/06/20 00:22:41;;;;;;;19.70;17.60;;;24.00;99.90;;;;;;6311485;28;20226;-62
2021/06/20 00:25:44;;;;;;;18.87;17.50;;;23.90;99.90;;;;;;6311713;28;20222;-62
2021/06/20 00:28:47;;;;;;;20.80;19.20;;;23.80;99.90;;;;;;6314064;28;20565;-62
2021/06/20 00:31:53;;;;;;;18.70;17.20;;;23.80;99.90;;;;;;6314413;28;20238;-62
2021/06/20 00:34:56;;;;;;;18.87;17.30;;;23.70;99.90;;;;;;6324006;28;20235;-62
2021/06/20 00:38:00;;;;;;;19.83;18.20;;;23.80;99.90;;;;;;6326437;28;20222;-62
2021/06/20 00:41:03;;;;;;;19.00;17.60;;;23.80;99.90;;;;;;6327796;28;20558;-62
2021/06/20 00:44:06;;;;;;;20.30;18.70;;;23.70;99.90;;;;;;6328264;28;20234;-62
2021/06/20 00:47:11;;;;;;;19.90;18.30;;;23.70;99.90;;;;;;6327154;28;20237;-63
2021/06/20 00:50:15;;;;;;;18.67;17.33;;;23.70;99.90;;;;;;6321360;28;20561;-63
2021/06/20 00:53:21;;;;;;;19.70;18.20;;;23.70;99.90;;;;;;6327068;28;20614;-63
2021/06/20 00:56:24;;;;;;;18.50;17.10;;;23.60;99.90;;;;;;6326731;28;20540;-64
2021/06/20 00:59:29;;;;;;;19.53;18.00;;;23.60;99.90;;;;;;6326299;28;20263;-64
2021/06/20 01:02:33;;;;;;;18.30;17.00;;;23.50;99.90;;;;;;6326334;28;20198;-63
2021/06/20 01:05:36;;;;;;;18.60;17.20;;;23.50;99.90;;;;;;6326273;28;20218;-63
2021/06/20 01:08:40;;;;;;;18.70;17.30;;;23.50;99.90;;;;;;6325957;28;20253;-63
2021/06/20 01:11:43;;;;;;;19.17;17.67;;;23.40;99.90;;;;;;6325563;28;20230;-63
2021/06/20 01:14:47;;;;;;;19.43;18.03;;;23.40;99.90;;;;;;6325908;28;20717;-63
2021/06/20 01:17:52;;;;;;;19.10;17.50;;;23.40;99.90;;;;;;6326550;28;20230;-63
2021/06/20 01:20:55;;;;;;;20.67;18.87;;;23.40;99.90;;;;;;6326541;28;20226;-63
2021/06/20 01:24:00;;;;;;;18.60;17.20;;;23.40;99.90;;;;;;6326852;28;20227;-63
2021/06/20 01:27:04;;;;;;;21.67;20.00;;;23.30;99.90;;;;;;6325579;28;20577;-63
2021/06/20 01:30:10;;;;;;;20.60;18.90;;;23.30;99.90;;;;;;6301727;28;20296;-63
2021/06/20 01:33:15;;;;;;;18.43;16.93;;;23.30;99.90;;;;;;6301173;28;20234;-63
2021/06/20 01:36:18;;;;;;;18.77;17.23;;;23.30;99.90;;;;;;6301044;28;20706;-64
2021/06/20 01:39:22;;;;;;;19.10;17.60;;;23.30;99.90;;;;;;6301447;28;20242;-63
2021/06/20 01:42:26;;;;;;;19.87;18.33;;;23.30;99.90;;;;;;6301597;28;20223;-63
2021/06/20 01:45:30;;;;;;;20.03;18.43;;;23.30;99.90;;;;;;6301567;28;20234;-63
2021/06/20 01:48:34;;;;;;;19.80;18.10;;;23.30;99.90;;;;;;6301451;28;20231;-63
2021/06/20 01:51:37;;;;;;;20.63;19.03;;;23.20;99.90;;;;;;6300851;28;20234;-64
2021/06/20 01:54:51;;;;;;;19.40;17.90;;;23.10;99.90;;;;;;6300960;28;20230;-64
2021/06/20 01:57:54;;;;;;;20.30;18.80;;;23.10;99.90;;;;;;6300857;28;20574;-64
2021/06/20 02:00:57;;;;;;;20.00;18.50;;;23.10;99.90;;;;;;6300759;28;20241;-64
2021/06/20 02:04:01;;;;;;;19.57;17.77;;;23.10;99.90;;;;;;6300841;28;20671;-64
2021/06/20 02:07:04;;;;;;;19.00;17.60;;;23.10;99.90;;;;;;6300117;28;20577;-64
2021/06/20 02:10:11;;;;;;;20.73;19.23;;;23.10;99.90;;;;;;6300859;28;20254;-64
2021/06/20 02:13:14;;;;;;;19.20;17.70;;;23.10;99.90;;;;;;6300839;28;20614;-64
2021/06/20 02:16:17;;;;;;;20.73;19.23;;;23.10;99.90;;;;;;6300667;28;20238;-64
2021/06/20 02:19:21;;;;;;;20.40;18.80;;;23.10;99.90;;;;;;6300388;28;20241;-64
2021/06/20 02:22:25;;;;;;;19.13;17.67;;;23.10;99.90;;;;;;6306211;28;20218;-64
2021/06/20 02:25:29;;;;;;;19.60;18.20;;;23.10;99.90;;;;;;6312295;28;20222;-64
2021/06/20 02:28:32;;;;;;;20.17;18.57;;;23.00;99.90;;;;;;6304936;28;20227;-64
2021/06/20 02:31:36;;;;;;;19.30;17.90;;;23.00;99.90;;;;;;6310700;28;20556;-64
2021/06/20 02:34:40;;;;;;;19.10;17.70;;;22.90;99.90;;;;;;6313657;28;20238;-64
2021/06/20 02:37:45;;;;;;;20.70;19.00;;;22.90;99.90;;;;;;6321508;28;20234;-64
2021/06/20 02:40:50;;;;;;;18.33;16.50;;;22.90;99.90;;;;;;6325034;28;20582;-64
2021/06/20 02:43:55;;;;;;;20.33;18.63;;;22.90;99.90;;;;;;6325244;28;20230;-64
2021/06/20 02:46:59;;;;;;;19.27;17.67;;;22.90;99.90;;;;;;6324805;28;20242;-64
2021/06/20 02:50:04;;;;;;;19.80;18.20;;;22.80;99.90;;;;;;6324988;28;20218;-64
2021/06/20 02:53:08;;;;;;;19.20;17.60;;;22.80;99.90;;;;;;6324673;28;20237;-64
2021/06/20 02:56:13;;;;;;;19.40;17.80;;;22.80;99.90;;;;;;6324712;28;20222;-64
2021/06/20 02:59:16;;;;;;;18.90;17.40;;;22.70;99.90;;;;;;6314415;28;20254;-65
2021/06/20 03:02:21;;;;;;;19.60;17.87;;;22.80;99.90;;;;;;6324702;28;20677;-64
2021/06/20 03:05:24;;;;;;;18.57;16.97;;;22.80;99.90;;;;;;6324502;28;20226;-64
2021/06/20 03:08:28;;;;;;;20.87;19.07;;;22.70;99.90;;;;;;6324990;28;20233;-64
2021/06/20 03:11:35;;;;;;;20.30;18.77;;;22.70;99.90;;;;;;6324175;28;20206;-65
2021/06/20 03:14:38;;;;;;;19.87;18.37;;;22.70;99.90;;;;;;6324129;28;20619;-64
2021/06/20 03:17:41;;;;;;;19.33;17.77;;;22.70;99.90;;;;;;6323084;28;20236;-65
2021/06/20 03:20:45;;;;;;;19.33;17.83;;;22.70;99.90;;;;;;6324487;28;20241;-64
2021/06/20 03:23:48;;;;;;;19.07;17.57;;;22.60;99.90;;;;;;6324347;28;20241;-64
2021/06/20 03:26:53;;;;;;;19.93;18.53;;;22.70;99.90;;;;;;6324461;28;20229;-64
2021/06/20 03:29:56;;;;;;;19.20;17.80;;;22.70;99.90;;;;;;6324267;28;20564;-64
2021/06/20 03:32:59;;;;;;;19.10;17.70;;;22.70;99.90;;;;;;6324449;28;20226;-64
2021/06/20 03:36:03;;;;;;;20.17;18.67;;;22.60;99.90;;;;;;6324291;28;20241;-64
2021/06/20 03:39:08;;;;;;;19.97;18.37;;;22.70;99.90;;;;;;6323979;28;20234;-64
2021/06/20 03:42:12;;;;;;;18.90;17.50;;;22.70;99.90;;;;;;6324385;28;20230;-64
2021/06/20 03:45:15;;;;;;;20.20;18.60;;;22.70;99.90;;;;;;6324172;28;20229;-64
2021/06/20 03:48:19;;;;;;;21.63;19.93;;;22.80;99.90;;;;;;6324347;28;20669;-64
2021/06/20 03:51:22;;;;;;;18.43;17.10;;;22.80;99.90;;;;;;6323936;28;20238;-64
2021/06/20 03:54:25;;;;;;;19.70;18.17;;;22.80;99.90;;;;;;6324306;28;20565;-64
2021/06/20 03:57:30;;;;;;;20.67;19.07;;;22.90;99.90;;;;;;6323758;28;20303;-65
2021/06/20 04:00:34;;;;;;;19.47;17.97;;;22.80;99.90;;;;;;6319075;28;20238;-65
2021/06/20 04:03:38;;;;;;;19.07;17.57;;;22.90;99.90;;;;;;6323637;28;20226;-65
2021/06/20 04:06:41;;;;;;;19.87;18.27;;;22.90;99.90;;;;;;6323623;28;20245;-65
2021/06/20 04:09:45;;;;;;;19.27;17.67;;;23.00;99.90;;;;;;6323795;28;20218;-64
2021/06/20 04:12:50;;;;;;;18.87;17.47;;;23.10;99.90;;;;;;6323963;28;20230;-64
2021/06/20 04:15:53;;;;;;;19.20;17.80;;;23.20;99.90;;;;;;6324103;28;20261;-65
2021/06/20 04:18:57;;;;;;;19.93;18.47;;;23.30;99.90;;;;;;6323547;28;20371;-65
2021/06/20 04:22:01;;;;;;;19.37;17.87;;;23.30;99.90;;;;;;6323869;28;20226;-65
2021/06/20 04:25:05;;;;;;;19.07;17.57;;;23.40;99.90;;;;;;6323608;28;20226;-64
2021/06/20 04:28:10;;;;;;;19.53;18.10;;;23.60;99.90;;;;;;6324942;28;20226;-65
2021/06/20 04:31:13;;;;;;;20.00;18.50;;;23.70;99.90;;;;;;6328322;28;20618;-64
2021/06/20 04:34:16;;;;;;;20.30;18.50;;;23.80;99.90;;;;;;6328201;28;20230;-64
2021/06/20 04:37:19;;;;;;;19.80;18.30;;;23.90;99.90;;;;;;6327976;28;20661;-64
2021/06/20 04:40:24;;;;;;;18.57;17.27;;;24.10;99.90;;;;;;6328203;28;20233;-65
2021/06/20 04:43:40;;;;;;;19.87;18.17;;;24.20;99.90;;;;;;6328053;28;20230;-64
2021/06/20 04:46:44;;;;;;;19.70;17.97;;;24.40;99.90;;;;;;6328091;28;20237;-65
2021/06/20 04:49:47;;;;;;;20.03;18.43;;;24.50;99.90;;;;;;6327519;28;20230;-65
2021/06/20 04:52:50;;;;;;;20.50;18.70;;;24.80;99.90;;;;;;6328044;28;20226;-65
2021/06/20 04:55:54;;;;;;;19.47;17.90;;;24.90;99.90;;;;;;6327480;28;20230;-66
2021/06/20 04:58:58;;;;;;;19.27;17.90;;;25.10;99.90;;;;;;6327347;28;20244;-64
2021/06/20 05:02:01;;;;;;;19.07;17.67;;;25.20;99.90;;;;;;6327427;28;20700;-64
2021/06/20 05:05:06;;;;;;;21.17;19.57;;;25.40;99.90;;;;;;6327216;28;20827;-64
2021/06/20 05:08:09;;;;;;;19.90;18.40;;;25.50;99.90;;;;;;6327489;28;20237;-64
2021/06/20 05:11:13;;;;;;;21.17;19.60;;;25.50;99.90;;;;;;6327174;28;20279;-64
2021/06/20 05:14:18;;;;;;;20.93;19.23;;;25.50;99.90;;;;;;6327239;28;20225;-64
2021/06/20 05:17:21;;;;;;;21.53;19.97;;;25.50;99.90;;;;;;6326565;28;20669;-64
2021/06/20 05:20:25;;;;;;;23.00;20.90;;;25.50;99.90;;;;;;6327314;28;20230;-64
2021/06/20 05:23:28;;;;;;;21.70;20.00;;;25.50;99.90;;;;;;6327255;28;20216;-64
2021/06/20 05:26:31;;;;;;;22.33;20.53;;;25.60;99.90;;;;;;6327346;28;20206;-64
2021/06/20 05:29:36;;;;;;;22.70;21.00;;;25.60;99.90;;;;;;6327033;28;20253;-65
2021/06/20 05:32:39;;;;;;;23.97;21.87;;;25.70;99.90;;;;;;6327042;28;20666;-65
2021/06/20 05:35:43;;;;;;;23.67;21.50;;;25.80;99.90;;;;;;6326510;28;20226;-65
2021/06/20 05:38:46;;;;;;;22.60;20.90;;;25.90;99.80;;;;;;6326429;28;20229;-64
2021/06/20 05:41:50;;;;;;;23.77;21.90;;;26.00;99.90;;;;;;6325569;28;20539;-64
2021/06/20 05:44:54;;;;;;;23.63;21.93;;;26.10;99.70;;;;;;6326801;28;20236;-65
2021/06/20 05:47:58;;;;;;;25.00;22.90;;;26.20;99.50;;;;;;6326368;28;20230;-64
2021/06/20 05:51:01;;;;;;;23.17;21.30;;;26.20;99.40;;;;;;6326162;28;20693;-64
2021/06/20 05:54:05;;;;;;;25.40;23.40;;;26.20;99.40;;;;;;6326457;28;20221;-65
2021/06/20 05:57:08;;;;;;;23.73;22.03;;;26.20;99.20;;;;;;6326137;28;20229;-64
2021/06/20 06:00:14;;;;;;;23.27;21.37;;;26.50;99.10;;;;;;6325875;28;20236;-64
2021/06/20 06:03:18;;;;;;;23.70;21.93;;;26.70;98.70;;;;;;6325791;28;20575;-64
2021/06/20 06:06:21;;;;;;;23.33;21.40;;;26.90;98.20;;;;;;6325908;28;20697;-64
2021/06/20 06:09:24;;;;;;;22.03;20.37;;;27.10;97.30;;;;;;6315957;28;20229;-65
2021/06/20 06:12:27;;;;;;;22.87;21.07;;;27.40;97.00;;;;;;6326076;28;20229;-64
2021/06/20 06:15:32;;;;;;;22.43;20.73;;;27.70;96.40;;;;;;6325569;28;20710;-64
2021/06/20 06:18:35;;;;;;;20.90;19.20;;;28.00;96.00;;;;;;6325943;28;20233;-64
2021/06/20 06:21:41;;;;;;;20.77;19.37;;;28.50;95.10;;;;;;6325245;28;20704;-65
2021/06/20 06:24:44;;;;;;;20.23;18.43;;;28.90;94.00;;;;;;6325849;28;20221;-65
2021/06/20 06:27:48;;;;;;;19.93;18.50;;;29.20;92.80;;;;;;6325392;28;20680;-65
2021/06/20 06:30:52;;;;;;;20.23;18.80;;;29.50;92.20;;;;;;6325698;28;20222;-65
2021/06/20 06:33:55;;;;;;;21.17;19.40;;;30.00;91.50;;;;;;6325343;28;20563;-65
2021/06/20 06:36:59;;;;;;;19.87;18.50;;;30.50;90.50;;;;;;6325062;28;20244;-65
2021/06/20 06:40:02;;;;;;;21.47;19.97;;;31.00;89.20;;;;;;6325567;28;20233;-65
2021/06/20 06:43:05;;;;;;;21.08;19.67;;;31.50;86.80;;;;;;6324828;28;20229;-66
2021/06/20 06:46:10;;;;;;;19.90;18.17;;;31.90;84.00;;;;;;6325372;28;20240;-65
2021/06/20 06:49:13;;;;;;;21.40;19.90;;;32.20;82.60;;;;;;6324439;28;20355;-66
2021/06/20 06:52:17;;;;;;;20.52;19.15;;;32.60;80.10;;;;;;6324905;28;20226;-66
2021/06/20 06:55:20;;;;;;;20.38;18.90;;;32.50;79.40;;;;;;6324726;28;20244;-66
2021/06/20 06:58:24;;;;;;;20.98;19.48;;;32.90;78.70;;;;;;6324928;28;20244;-64
2021/06/20 07:01:29;;;;;;;21.10;19.67;;;33.40;76.20;;;;;;6324029;28;20602;-65
2021/06/20 07:04:32;;;;;;;20.98;19.50;;;33.40;74.80;;;;;;6324732;28;20267;-67
2021/06/20 07:07:35;;;;;;;21.08;19.67;;;33.30;74.90;;;;;;6324206;28;20236;-64
2021/06/20 07:10:38;;;;;;;19.70;18.13;;;33.50;74.10;;;;;;6324699;28;20222;-65
2021/06/20 07:13:42;;;;;;;19.23;17.90;;;34.00;73.60;;;;;;6314993;28;20256;-65
2021/06/20 07:16:46;;;;;;;20.85;19.45;;;34.80;70.10;;;;;;6324301;28;20240;-65
2021/06/20 07:19:49;;;;;;;20.27;18.95;;;34.90;68.90;;;;;;6324415;28;20754;-65
2021/06/20 07:22:53;;;;;;;20.33;18.75;;;35.30;67.00;;;;;;6324049;28;20696;-68
2021/06/20 07:25:56;;;;;;;21.42;19.60;;;35.70;65.90;;;;;;6324403;28;20229;-65
2021/06/20 07:29:00;;;;;;;19.17;17.83;;;36.30;62.90;;;;;;6323952;28;20229;-65
2021/06/20 07:32:05;;;;;;;19.67;18.38;;;36.90;61.00;;;;;;6324413;28;20225;-65
2021/06/20 07:35:09;;;;;;;19.77;18.48;;;36.90;60.60;;;;;;6323941;28;20240;-66
2021/06/20 07:38:13;;;;;;;19.08;17.55;;;36.20;60.50;;;;;;6324074;28;20691;-65
2021/06/20 07:41:16;;;;;;;19.88;18.60;;;36.00;61.40;;;;;;6323512;28;20235;-65
2021/06/20 07:44:19;;;;;;;18.83;17.70;;;35.70;62.50;;;;;;6324223;28;20682;-66
2021/06/20 07:47:24;;;;;;;20.60;19.17;;;35.90;62.40;;;;;;6323758;28;20240;-65
2021/06/20 07:50:27;;;;;;;20.00;18.70;;;36.00;62.00;;;;;;6324313;28;20202;-66
2021/06/20 07:53:32;;;;;;;18.95;17.75;;;35.80;61.50;;;;;;6323787;28;20202;-65
2021/06/20 07:56:35;;;;;;;19.80;18.50;;;35.50;61.40;;;;;;6323814;28;20677;-65
2021/06/20 07:59:38;;;;;;;20.73;19.15;;;34.90;63.20;;;;;;6323750;28;20225;-65
2021/06/20 08:02:43;;;;;;;19.92;18.63;;;34.80;63.70;;;;;;6324208;28;20692;-66
2021/06/20 08:05:46;;;;;;;22.83;20.83;;;34.70;63.60;;;;;;6328853;28;20237;-65
2021/06/20 08:08:54;;;;;;;21.63;20.23;;;34.50;64.20;;;;;;6328389;28;20229;-65
2021/06/20 08:11:58;;;;;;;21.40;20.00;;;34.50;64.70;;;;;;6329099;28;20222;-65
2021/06/20 08:15:01;;;;;;;20.70;19.02;;;34.20;65.30;;;;;;6323608;28;20225;-64
2021/06/20 08:18:06;;;;;;;19.85;18.55;;;34.10;65.20;;;;;;6328227;28;20229;-65
2021/06/20 08:21:09;;;;;;;21.00;19.63;;;33.60;64.80;;;;;;6319054;28;20234;-65
2021/06/20 08:24:13;;;;;;;20.70;19.15;;;33.30;66.30;;;;;;6314717;28;20236;-65
2021/06/20 08:27:16;;;;;;;20.70;19.15;;;33.20;66.20;;;;;;6311082;28;20230;-65
2021/06/20 08:30:21;;;;;;;19.98;18.50;;;33.20;66.70;;;;;;6316145;28;20225;-65
2021/06/20 08:33:25;;;;;;;20.77;19.35;;;33.30;67.00;;;;;;6305241;28;20230;-65
2021/06/20 08:36:29;;;;;;;22.08;20.40;;;33.30;66.40;;;;;;6322428;28;20230;-65
2021/06/20 08:39:32;;;;;;;21.50;20.08;;;33.30;66.70;;;;;;6328165;28;20230;-65
2021/06/20 08:42:35;;;;;;;20.58;19.08;;;33.20;67.60;;;;;;6328039;28;20583;-65
2021/06/20 08:45:39;;;;;;;20.25;18.85;;;33.20;68.30;;;;;;6328078;28;20229;-65
2021/06/20 08:48:44;;;;;;;22.08;20.30;;;33.20;67.70;;;;;;6327564;28;20692;-65
2021/06/20 08:51:51;;;;;;;21.83;20.13;;;33.50;67.10;;;;;;6327937;28;20226;-61
2021/06/20 08:55:03;;;;;;;21.17;19.70;;;33.60;66.70;;;;;;6327538;28;20237;-67
2021/06/20 08:58:18;;;;;;;21.73;20.15;;;33.70;66.40;;;;;;6327623;28;20577;-66
2021/06/20 09:01:21;;;;;;;18.83;17.55;;;33.90;66.00;;;;;;6316944;28;20237;-66
2021/06/20 09:04:29;;;;;;;19.00;17.80;;;34.00;65.00;;;;;;6302168;28;20681;-66
2021/06/20 09:07:35;;;;;;;21.00;19.38;;;34.20;64.50;;;;;;6302046;28;20230;-66
2021/06/20 09:10:38;;;;;;;20.52;19.17;;;34.10;63.90;;;;;;6302169;28;20233;-67
2021/06/20 09:13:41;;;;;;;20.30;19.00;;;34.30;64.20;;;;;;6301643;28;20226;-66
2021/06/20 09:16:47;;;;;;;21.33;19.83;;;34.50;64.30;;;;;;6301127;28;20241;-66
2021/06/20 09:19:57;;;;;;;20.05;18.38;;;34.50;63.70;;;;;;6301744;28;20236;-66
2021/06/20 09:23:01;;;;;;;19.55;18.25;;;34.90;63.70;;;;;;6301830;28;20568;-66
2021/06/20 09:26:04;;;;;;;21.08;19.58;;;35.30;62.70;;;;;;6301649;28;20545;-66
2021/06/20 09:29:09;;;;;;;19.40;18.10;;;35.10;61.50;;;;;;6301616;28;20253;-68
2021/06/20 09:32:13;;;;;;;20.10;18.67;;;34.20;63.80;;;;;;6301419;28;20658;-68
2021/06/20 09:35:18;;;;;;;20.10;18.60;;;34.10;64.80;;;;;;6301538;28;20249;-68
2021/06/20 09:38:24;;;;;;;19.42;17.92;;;34.20;64.90;;;;;;6301059;28;20666;-66
2021/06/20 09:41:27;;;;;;;21.48;20.02;;;34.20;64.10;;;;;;6301460;28;20201;-67
2021/06/20 09:44:38;;;;;;;22.33;20.60;;;34.30;64.40;;;;;;6301046;28;20199;-67
2021/06/20 09:47:43;;;;;;;20.70;19.25;;;34.20;64.90;;;;;;6314073;28;20566;-67
2021/06/20 09:50:47;;;;;;;21.02;19.52;;;34.40;64.70;;;;;;6323836;28;20367;-66
2021/06/20 09:53:51;;;;;;;21.65;20.15;;;34.30;63.20;;;;;;6321513;28;20229;-65
2021/06/20 09:56:54;;;;;;;21.20;19.70;;;34.30;63.80;;;;;;6333088;28;20241;-68
2021/06/20 10:00:00;;;;;;;21.33;18.95;;;33.90;64.60;;;;;;6347641;28;20239;-67
2021/06/20 10:03:04;;;;;;;19.88;18.55;;;34.10;64.80;;;;;;6347392;28;20240;-69
2021/06/20 10:06:10;;;;;;;19.40;17.95;;;33.90;64.70;;;;;;6347063;28;20571;-67
2021/06/20 10:09:14;;;;;;;20.13;18.83;;;33.60;65.10;;;;;;6345325;28;20330;-67
2021/06/20 10:12:17;;;;;;;20.30;18.35;;;33.30;66.40;;;;;;6345137;28;20869;-67
2021/06/20 10:15:21;;;;;;;20.42;18.88;;;33.40;66.80;;;;;;6346463;28;20225;-68
2021/06/20 10:18:26;;;;;;;20.45;18.88;;;33.50;66.20;;;;;;6346346;28;20308;-67
2021/06/20 10:21:34;;;;;;;20.10;18.80;;;33.50;66.40;;;;;;6346608;28;20239;-68
2021/06/20 10:24:46;;;;;;;19.77;18.30;;;33.70;66.30;;;;;;6348700;28;20233;-68
2021/06/20 10:27:58;;;;;;;21.17;19.77;;;34.20;66.00;;;;;;6350161;28;20236;-67
2021/06/20 10:31:08;;;;;;;20.50;19.00;;;34.10;64.80;;;;;;6349973;28;20225;-67
2021/06/20 10:34:19;;;;;;;19.60;18.30;;;34.30;64.10;;;;;;6349252;28;20688;-67
2021/06/20 10:37:25;;;;;;;19.88;18.48;;;34.20;64.10;;;;;;6349577;28;20251;-68
2021/06/20 10:40:30;;;;;;;20.58;19.17;;;34.60;63.30;;;;;;6349457;28;20260;-67
2021/06/20 10:43:34;;;;;;;19.30;18.10;;;34.30;62.50;;;;;;6350305;28;20228;-68
2021/06/20 10:46:39;;;;;;;20.30;18.75;;;34.20;63.80;;;;;;6350023;28;20252;-67
2021/06/20 10:49:53;;;;;;;20.20;18.70;;;33.40;65.00;;;;;;6350553;28;20220;-67
2021/06/20 10:52:59;;;;;;;19.85;18.45;;;33.30;65.40;;;;;;6349605;28;20225;-67
2021/06/20 10:56:02;;;;;;;19.40;18.15;;;33.70;64.40;;;;;;6350522;28;20699;-68
2021/06/20 10:59:06;;;;;;;19.35;18.05;;;34.20;63.30;;;;;;6349663;28;20235;-67
2021/06/20 11:02:23;;;;;;;19.58;18.17;;;34.60;61.40;;;;;;6350287;28;20225;-68
2021/06/20 11:05:26;;;;;;;20.17;18.70;;;34.90;60.70;;;;;;6349821;28;20209;-67
2021/06/20 11:08:36;;;;;;;19.85;18.35;;;35.00;59.60;;;;;;6349818;28;20558;-68
2021/06/20 11:11:50;;;;;;;17.70;16.50;;;35.30;58.80;;;;;;6349675;28;20185;-67
2021/06/20 11:14:54;;;;;;;20.00;18.55;;;35.40;58.20;;;;;;6350253;28;20229;-67
2021/06/20 11:18:08;;;;;;;18.90;17.63;;;35.50;58.40;;;;;;6349573;28;20233;-68
2021/06/20 11:21:11;;;;;;;21.00;19.20;;;35.70;58.70;;;;;;6350049;28;20683;-68
2021/06/20 11:24:18;;;;;;;20.48;19.13;;;35.50;58.10;;;;;;6345055;28;20251;-68
2021/06/20 11:27:25;;;;;;;19.10;17.67;;;35.10;58.70;;;;;;6349515;28;20236;-68
2021/06/20 11:30:28;;;;;;;19.60;18.20;;;35.00;59.10;;;;;;6349602;28;20229;-67
2021/06/20 11:33:31;;;;;;;19.45;18.25;;;35.00;58.90;;;;;;6349596;28;20225;-67
2021/06/20 11:36:34;;;;;;;19.45;18.15;;;34.80;58.40;;;;;;6349493;28;20233;-68
2021/06/20 11:39:39;;;;;;;19.63;18.23;;;34.70;58.90;;;;;;6348480;28;20728;-67
2021/06/20 11:42:45;;;;;;;20.73;19.33;;;34.70;59.20;;;;;;6349364;28;20239;-67
2021/06/20 11:45:49;;;;;;;20.70;18.92;;;34.80;59.70;;;;;;6349347;28;20224;-68
2021/06/20 11:48:59;;;;;;;22.13;20.73;;;35.10;60.00;;;;;;6349740;28;20235;-67
2021/06/20 11:52:03;;;;;;;22.70;21.20;;;34.80;60.30;;;;;;6349187;28;20229;-68
2021/06/20 11:55:13;;;;;;;22.42;20.70;;;34.70;60.60;;;;;;6349620;28;20711;-67
2021/06/20 11:58:17;;;;;;;20.45;19.05;;;34.70;60.00;;;;;;6348695;28;20259;-67
2021/06/20 12:01:20;;;;;;;20.38;18.98;;;34.30;61.00;;;;;;6348898;28;20228;-66
2021/06/20 12:04:26;;;;;;;20.48;19.08;;;34.40;61.00;;;;;;6349052;28;20236;-68
2021/06/20 12:07:29;;;;;;;22.50;21.02;;;34.40;61.40;;;;;;6349051;28;20243;-67
2021/06/20 12:10:37;;;;;;;21.02;19.63;;;34.50;61.60;;;;;;6348851;28;20236;-67
2021/06/20 12:13:41;;;;;;;22.98;21.23;;;34.40;61.70;;;;;;6348994;28;20225;-67
2021/06/20 12:16:48;;;;;;;21.35;19.85;;;34.50;61.80;;;;;;6348654;28;20233;-67
2021/06/20 12:19:52;;;;;;;22.00;20.45;;;34.90;61.00;;;;;;6349136;28;20558;-67
2021/06/20 12:22:55;;;;;;;21.77;20.17;;;35.10;60.80;;;;;;6348296;28;20224;-67
2021/06/20 12:26:00;;;;;;;22.02;20.52;;;35.10;60.00;;;;;;6349284;28;20233;-62
2021/06/20 12:29:04;;;;;;;22.58;20.77;;;35.00;61.10;;;;;;6343570;28;20237;-61
2021/06/20 12:32:14;;;;;;;23.35;21.70;;;34.90;60.70;;;;;;6348907;28;20233;-61
2021/06/20 12:35:22;;;;;;;23.52;21.85;;;34.80;61.10;;;;;;6348871;28;20225;-62
2021/06/20 12:38:30;;;;;;;23.63;21.83;;;34.70;60.80;;;;;;6349005;28;20232;-62
2021/06/20 12:41:35;;;;;;;22.80;21.23;;;34.60;61.20;;;;;;6348952;28;20205;-62
2021/06/20 12:44:40;;;;;;;21.63;20.23;;;34.40;62.10;;;;;;6349202;28;20233;-62
2021/06/20 12:47:43;;;;;;;24.05;22.35;;;34.50;61.80;;;;;;6348561;28;20239;-62
2021/06/20 12:50:49;;;;;;;22.60;21.02;;;34.30;62.00;;;;;;6352438;28;20237;-61
2021/06/20 12:54:04;;;;;;;22.10;20.60;;;34.30;62.70;;;;;;6353122;28;20692;-61
2021/06/20 12:57:09;;;;;;;22.63;20.80;;;34.30;63.70;;;;;;6353177;28;20251;-61
2021/06/20 13:00:14;;;;;;;22.23;20.33;;;34.20;64.30;;;;;;6353234;28;20233;-61
2021/06/20 13:03:25;;;;;;;23.35;21.50;;;33.90;65.60;;;;;;6353039;28;20225;-61
2021/06/20 13:06:33;;;;;;;21.33;19.80;;;34.00;64.70;;;;;;6352713;28;20572;-62
2021/06/20 13:09:36;;;;;;;22.27;20.77;;;34.10;64.70;;;;;;6353275;28;20240;-62
2021/06/20 13:12:41;;;;;;;21.60;20.10;;;34.20;63.60;;;;;;6352665;28;20710;-62
2021/06/20 13:15:44;;;;;;;21.35;19.65;;;34.40;63.20;;;;;;6352718;28;20307;-62
2021/06/20 13:18:47;;;;;;;21.42;19.92;;;34.70;63.10;;;;;;6352545;28;20228;-62
2021/06/20 13:21:51;;;;;;;20.30;18.80;;;34.60;62.50;;;;;;6352159;28;20707;-62
2021/06/20 13:24:54;;;;;;;21.45;19.88;;;34.70;62.30;;;;;;6352520;28;20229;-62
2021/06/20 13:27:59;;;;;;;21.65;20.08;;;34.50;62.20;;;;;;6352343;28;20232;-62
2021/06/20 13:31:02;;;;;;;21.33;19.65;;;34.20;63.30;;;;;;6352186;28;20239;-62
2021/06/20 13:34:06;;;;;;;20.45;19.05;;;34.20;63.00;;;;;;6342159;28;20224;-62
2021/06/20 13:37:09;;;;;;;19.80;18.20;;;34.20;62.30;;;;;;6352027;28;20566;-61
2021/06/20 13:40:14;;;;;;;20.17;18.67;;;33.70;63.00;;;;;;6351632;28;20711;-62
2021/06/20 13:43:19;;;;;;;18.83;17.42;;;33.70;63.30;;;;;;6351919;28;20225;-62
2021/06/20 13:46:22;;;;;;;19.90;18.50;;;33.60;62.90;;;;;;6351749;28;20228;-62
2021/06/20 13:49:26;;;;;;;19.30;17.83;;;33.90;63.00;;;;;;6351890;28;20235;-62
2021/06/20 13:52:29;;;;;;;19.80;18.20;;;34.00;61.70;;;;;;6351829;28;20726;-62
2021/06/20 13:55:32;;;;;;;19.55;18.25;;;33.70;62.40;;;;;;6351806;28;20232;-62
2021/06/20 13:58:37;;;;;;;17.63;16.40;;;33.80;62.20;;;;;;6351657;28;20229;-62
2021/06/20 14:01:40;;;;;;;20.45;18.95;;;34.00;61.70;;;;;;6350442;28;20688;-61
2021/06/20 14:04:45;;;;;;;21.00;19.30;;;34.10;61.10;;;;;;6351324;28;20224;-61
2021/06/20 14:07:49;;;;;;;20.23;18.63;;;34.30;61.10;;;;;;6351140;28;20798;-61
2021/06/20 14:10:52;;;;;;;20.70;19.13;;;34.40;61.60;;;;;;6351316;28;20224;-61
2021/06/20 14:13:57;;;;;;;20.70;19.30;;;34.40;62.10;;;;;;6350846;28;20217;-61
2021/06/20 14:17:00;;;;;;;20.70;19.20;;;34.30;63.50;;;;;;6351078;28;20334;-61
2021/06/20 14:20:04;;;;;;;22.55;20.50;;;34.50;63.50;;;;;;6350726;28;20684;-61
2021/06/20 14:23:08;;;;;;;19.77;18.38;;;34.80;63.30;;;;;;6351067;28;20566;-61
2021/06/20 14:26:11;;;;;;;22.00;20.40;;;34.90;62.90;;;;;;6350530;28;20567;-61
2021/06/20 14:29:16;;;;;;;20.77;19.27;;;34.90;63.20;;;;;;6350787;28;20681;-61
2021/06/20 14:32:19;;;;;;;21.17;19.50;;;34.90;62.70;;;;;;6350605;28;20225;-62
2021/06/20 14:35:25;;;;;;;21.70;20.27;;;35.00;63.20;;;;;;6349063;28;20527;-61
2021/06/20 14:38:28;;;;;;;21.23;19.75;;;34.90;63.20;;;;;;6349609;28;20555;-62
2021/06/20 14:41:31;;;;;;;20.08;18.67;;;34.90;63.50;;;;;;6350606;28;20208;-61
2021/06/20 14:44:36;;;;;;;20.80;19.25;;;34.90;63.00;;;;;;6350732;28;20232;-61
2021/06/20 14:47:39;;;;;;;20.23;18.48;;;35.00;62.60;;;;;;6350307;28;20228;-61
2021/06/20 14:50:43;;;;;;;19.02;17.63;;;34.80;62.10;;;;;;6350181;28;20601;-61
2021/06/20 14:53:46;;;;;;;19.90;18.50;;;34.60;62.10;;;;;;6350049;28;20561;-62
2021/06/20 14:56:50;;;;;;;20.85;19.35;;;34.50;62.10;;;;;;6350423;28;20228;-62
2021/06/20 14:59:54;;;;;;;18.92;17.52;;;34.30;62.50;;;;;;6350024;28;20220;-62
2021/06/20 15:02:57;;;;;;;19.92;18.50;;;34.00;63.50;;;;;;6350000;28;20220;-62
2021/06/20 15:06:01;;;;;;;20.23;18.73;;;33.90;64.90;;;;;;6349634;28;20228;-62
2021/06/20 15:09:04;;;;;;;21.80;20.05;;;33.60;65.90;;;;;;6350305;28;20227;-62
2021/06/20 15:12:09;;;;;;;19.83;18.42;;;33.40;66.40;;;;;;6349505;28;20566;-62
2021/06/20 15:15:15;;;;;;;20.15;18.75;;;33.20;66.60;;;;;;6350142;28;20349;-62
2021/06/20 15:18:19;;;;;;;20.52;19.08;;;33.00;67.10;;;;;;6350215;28;20233;-62
2021/06/20 15:21:23;;;;;;;20.00;18.52;;;32.90;67.50;;;;;;6349955;28;20527;-62
2021/06/20 15:24:26;;;;;;;19.58;18.13;;;32.80;68.50;;;;;;6349937;28;20549;-62
2021/06/20 15:27:29;;;;;;;19.40;18.00;;;32.80;68.70;;;;;;6349603;28;20236;-62
2021/06/20 15:30:34;;;;;;;18.90;17.42;;;32.60;68.90;;;;;;6349807;28;20224;-62
2021/06/20 15:33:37;;;;;;;20.33;18.85;;;32.50;69.40;;;;;;6349481;28;20221;-62
2021/06/20 15:36:40;;;;;;;20.17;18.42;;;32.20;70.50;;;;;;6349662;28;20676;-62